sensor_id;sensor_type;location;lat;lon;timestamp;temperature;humidity
8707;DHT22;4390;49.302;9.306;2022-12-18T00:01:21;-7.10;86.50
8707;DHT22;4390;49.302;9.306;2022-12-18T00:03:49;-7.10;86.50
8707;DHT22;4390;49.302;9.306;2022-12-18T00:06:19;-7.00;86.20
8707;DHT22;4390;49.302;9.306;2022-12-18T00:08:46;-6.90;86.30
8707;DHT22;4390;49.302;9.306;2022-12-18T00:11:24;-7.00;86.20
8707;DHT22;4390;49.302;9.306;2022-12-18T00:13:52;-6.90;86.20
8707;DHT22;4390;49.302;9.306;2022-12-18T00:16:21;-7.20;86.10
8707;DHT22;4390;49.302;9.306;2022-12-18T00:18:50;-7.40;86.40
8707;DHT22;4390;49.302;9.306;2022-12-18T00:21:18;-7.60;86.60
8707;DHT22;4390;49.302;9.306;2022-12-18T00:23:47;-7.60;86.80
8707;DHT22;4390;49.302;9.306;2022-12-18T00:26:16;-7.70;86.80
8707;DHT22;4390;49.302;9.306;2022-12-18T00:28:44;-7.70;87.00
8707;DHT22;4390;49.302;9.306;2022-12-18T00:31:14;-7.60;87.10
8707;DHT22;4390;49.302;9.306;2022-12-18T00:33:41;-7.60;87.00
8707;DHT22;4390;49.302;9.306;2022-12-18T00:36:20;-7.40;87.00
8707;DHT22;4390;49.302;9.306;2022-12-18T00:38:47;-7.30;86.80
8707;DHT22;4390;49.302;9.306;2022-12-18T00:41:18;-7.30;86.60
8707;DHT22;4390;49.302;9.306;2022-12-18T00:44:05;-7.60;86.70
8707;DHT22;4390;49.302;9.306;2022-12-18T00:46:34;-7.70;87.00
8707;DHT22;4390;49.302;9.306;2022-12-18T00:49:01;-7.80;87.40
8707;DHT22;4390;49.302;9.306;2022-12-18T00:51:28;-7.80;87.50
8707;DHT22;4390;49.302;9.306;2022-12-18T00:53:55;-7.80;87.60
8707;DHT22;4390;49.302;9.306;2022-12-18T00:56:22;-7.90;87.40
8707;DHT22;4390;49.302;9.306;2022-12-18T00:58:50;-8.10;87.40
8707;DHT22;4390;49.302;9.306;2022-12-18T01:01:17;-8.10;87.70
8707;DHT22;4390;49.302;9.306;2022-12-18T01:03:47;-8.00;87.60
8707;DHT22;4390;49.302;9.306;2022-12-18T01:06:16;-7.80;87.50
8707;DHT22;4390;49.302;9.306;2022-12-18T01:08:43;-7.70;87.40
8707;DHT22;4390;49.302;9.306;2022-12-18T01:11:17;-7.60;87.20
8707;DHT22;4390;49.302;9.306;2022-12-18T01:13:44;-7.60;86.90
8707;DHT22;4390;49.302;9.306;2022-12-18T01:16:12;-7.60;86.90
8707;DHT22;4390;49.302;9.306;2022-12-18T01:18:40;-7.60;86.90
8707;DHT22;4390;49.302;9.306;2022-12-18T01:21:11;-7.80;87.20
8707;DHT22;4390;49.302;9.306;2022-12-18T01:23:37;-7.80;87.60
8707;DHT22;4390;49.302;9.306;2022-12-18T01:26:11;-7.70;87.60
8707;DHT22;4390;49.302;9.306;2022-12-18T01:28:38;-7.70;87.60
8707;DHT22;4390;49.302;9.306;2022-12-18T01:31:27;-7.70;87.50
8707;DHT22;4390;49.302;9.306;2022-12-18T01:33:55;-7.70;87.20
8707;DHT22;4390;49.302;9.306;2022-12-18T01:36:26;-7.80;87.30
8707;DHT22;4390;49.302;9.306;2022-12-18T01:38:53;-7.60;87.50
8707;DHT22;4390;49.302;9.306;2022-12-18T01:41:29;-7.80;87.40
8707;DHT22;4390;49.302;9.306;2022-12-18T01:47:39;-7.90;87.70
8707;DHT22;4390;49.302;9.306;2022-12-18T01:50:17;-7.70;87.50
8707;DHT22;4390;49.302;9.306;2022-12-18T01:52:51;-7.80;87.40
8707;DHT22;4390;49.302;9.306;2022-12-18T01:55:21;-7.70;87.50
8707;DHT22;4390;49.302;9.306;2022-12-18T01:57:51;-7.60;87.10
8707;DHT22;4390;49.302;9.306;2022-12-18T02:00:21;-7.50;86.90
8707;DHT22;4390;49.302;9.306;2022-12-18T02:02:50;-7.50;86.70
8707;DHT22;4390;49.302;9.306;2022-12-18T02:13:59;-8.00;87.40
8707;DHT22;4390;49.302;9.306;2022-12-18T02:16:45;-7.90;87.70
8707;DHT22;4390;49.302;9.306;2022-12-18T02:19:43;-7.90;87.40
8707;DHT22;4390;49.302;9.306;2022-12-18T02:28:04;-8.10;88.00
8707;DHT22;4390;49.302;9.306;2022-12-18T02:30:35;-7.90;88.20
8707;DHT22;4390;49.302;9.306;2022-12-18T02:33:04;-7.70;87.70
8707;DHT22;4390;49.302;9.306;2022-12-18T02:35:33;-7.60;87.10
8707;DHT22;4390;49.302;9.306;2022-12-18T02:38:02;-7.60;86.80
8707;DHT22;4390;49.302;9.306;2022-12-18T02:40:32;-7.90;86.80
8707;DHT22;4390;49.302;9.306;2022-12-18T02:43:11;-7.90;87.10
8707;DHT22;4390;49.302;9.306;2022-12-18T02:45:55;-7.90;87.30
8707;DHT22;4390;49.302;9.306;2022-12-18T02:48:26;-7.90;87.40
8707;DHT22;4390;49.302;9.306;2022-12-18T02:53:38;-7.70;87.90
8707;DHT22;4390;49.302;9.306;2022-12-18T02:56:18;-7.60;87.60
8707;DHT22;4390;49.302;9.306;2022-12-18T02:59:07;-7.40;87.00
8707;DHT22;4390;49.302;9.306;2022-12-18T03:01:49;-7.60;86.70
8707;DHT22;4390;49.302;9.306;2022-12-18T03:04:29;-7.70;86.80
8707;DHT22;4390;49.302;9.306;2022-12-18T03:06:59;-7.90;86.90
8707;DHT22;4390;49.302;9.306;2022-12-18T03:09:34;-7.90;87.10
8707;DHT22;4390;49.302;9.306;2022-12-18T03:12:10;-7.80;87.00
8707;DHT22;4390;49.302;9.306;2022-12-18T03:15:03;-7.70;86.90
8707;DHT22;4390;49.302;9.306;2022-12-18T03:17:32;-7.60;86.80
8707;DHT22;4390;49.302;9.306;2022-12-18T03:20:08;-7.80;86.70
8707;DHT22;4390;49.302;9.306;2022-12-18T03:22:38;-7.90;87.10
8707;DHT22;4390;49.302;9.306;2022-12-18T03:25:09;-7.90;87.50
8707;DHT22;4390;49.302;9.306;2022-12-18T03:27:42;-7.80;87.50
8707;DHT22;4390;49.302;9.306;2022-12-18T03:30:13;-7.60;87.20
8707;DHT22;4390;49.302;9.306;2022-12-18T03:33:10;-7.90;86.70
8707;DHT22;4390;49.302;9.306;2022-12-18T03:35:43;-8.10;87.30
8707;DHT22;4390;49.302;9.306;2022-12-18T03:38:11;-8.00;87.40
8707;DHT22;4390;49.302;9.306;2022-12-18T03:40:44;-7.90;87.20
8707;DHT22;4390;49.302;9.306;2022-12-18T03:43:19;-7.80;87.00
8707;DHT22;4390;49.302;9.306;2022-12-18T03:45:52;-7.90;86.70
8707;DHT22;4390;49.302;9.306;2022-12-18T03:48:29;-7.90;86.70
8707;DHT22;4390;49.302;9.306;2022-12-18T03:51:09;-7.80;86.40
8707;DHT22;4390;49.302;9.306;2022-12-18T03:56:22;-7.90;86.40
8707;DHT22;4390;49.302;9.306;2022-12-18T03:58:52;-8.00;86.70
8707;DHT22;4390;49.302;9.306;2022-12-18T04:01:37;-8.00;86.90
8707;DHT22;4390;49.302;9.306;2022-12-18T04:04:05;-8.10;86.90
8707;DHT22;4390;49.302;9.306;2022-12-18T04:06:37;-8.00;86.90
8707;DHT22;4390;49.302;9.306;2022-12-18T04:09:07;-8.00;86.90
8707;DHT22;4390;49.302;9.306;2022-12-18T04:11:38;-7.90;86.80
8707;DHT22;4390;49.302;9.306;2022-12-18T04:14:06;-7.90;86.70
8707;DHT22;4390;49.302;9.306;2022-12-18T04:16:33;-8.00;86.60
8707;DHT22;4390;49.302;9.306;2022-12-18T04:19:03;-8.10;86.70
8707;DHT22;4390;49.302;9.306;2022-12-18T04:21:36;-7.90;86.80
8707;DHT22;4390;49.302;9.306;2022-12-18T04:24:03;-7.60;86.30
8707;DHT22;4390;49.302;9.306;2022-12-18T04:26:31;-7.60;85.70
8707;DHT22;4390;49.302;9.306;2022-12-18T04:29:12;-7.90;85.70
8707;DHT22;4390;49.302;9.306;2022-12-18T04:31:39;-8.00;86.30
8707;DHT22;4390;49.302;9.306;2022-12-18T04:34:05;-8.20;86.40
8707;DHT22;4390;49.302;9.306;2022-12-18T04:36:38;-8.30;86.90
8707;DHT22;4390;49.302;9.306;2022-12-18T04:39:05;-8.30;86.90
8707;DHT22;4390;49.302;9.306;2022-12-18T04:41:33;-8.30;87.10
8707;DHT22;4390;49.302;9.306;2022-12-18T04:44:00;-8.30;86.90
8707;DHT22;4390;49.302;9.306;2022-12-18T04:46:27;-8.30;86.70
8707;DHT22;4390;49.302;9.306;2022-12-18T04:48:54;-8.20;86.80
8707;DHT22;4390;49.302;9.306;2022-12-18T04:51:20;-8.30;86.60
8707;DHT22;4390;49.302;9.306;2022-12-18T04:53:52;-8.30;86.90
8707;DHT22;4390;49.302;9.306;2022-12-18T04:56:19;-8.30;87.10
8707;DHT22;4390;49.302;9.306;2022-12-18T04:58:46;-8.20;87.30
8707;DHT22;4390;49.302;9.306;2022-12-18T05:01:14;-8.20;87.50
8707;DHT22;4390;49.302;9.306;2022-12-18T05:03:41;-8.20;87.70
8707;DHT22;4390;49.302;9.306;2022-12-18T05:06:09;-8.20;88.10
8707;DHT22;4390;49.302;9.306;2022-12-18T05:08:36;-8.10;88.50
8707;DHT22;4390;49.302;9.306;2022-12-18T05:11:07;-8.00;88.40
8707;DHT22;4390;49.302;9.306;2022-12-18T05:13:35;-7.80;88.10
8707;DHT22;4390;49.302;9.306;2022-12-18T05:16:03;-7.80;87.90
8707;DHT22;4390;49.302;9.306;2022-12-18T05:18:30;-7.80;87.40
8707;DHT22;4390;49.302;9.306;2022-12-18T05:20:57;-7.70;87.30
8707;DHT22;4390;49.302;9.306;2022-12-18T05:23:24;-7.90;87.20
8707;DHT22;4390;49.302;9.306;2022-12-18T05:25:53;-7.90;87.30
8707;DHT22;4390;49.302;9.306;2022-12-18T05:28:21;-7.90;87.30
8707;DHT22;4390;49.302;9.306;2022-12-18T05:30:49;-8.00;87.40
8707;DHT22;4390;49.302;9.306;2022-12-18T05:33:17;-8.00;87.70
8707;DHT22;4390;49.302;9.306;2022-12-18T05:35:53;-7.70;87.80
8707;DHT22;4390;49.302;9.306;2022-12-18T05:38:20;-7.60;87.70
8707;DHT22;4390;49.302;9.306;2022-12-18T05:40:48;-7.70;87.80
8707;DHT22;4390;49.302;9.306;2022-12-18T05:43:15;-7.60;87.90
8707;DHT22;4390;49.302;9.306;2022-12-18T05:45:47;-7.90;88.00
8707;DHT22;4390;49.302;9.306;2022-12-18T05:48:15;-7.80;87.90
8707;DHT22;4390;49.302;9.306;2022-12-18T05:50:43;-7.70;87.80
8707;DHT22;4390;49.302;9.306;2022-12-18T05:53:13;-7.70;87.60
8707;DHT22;4390;49.302;9.306;2022-12-18T05:55:40;-7.60;87.40
8707;DHT22;4390;49.302;9.306;2022-12-18T05:58:08;-7.70;87.10
8707;DHT22;4390;49.302;9.306;2022-12-18T06:00:37;-7.80;87.10
8707;DHT22;4390;49.302;9.306;2022-12-18T06:03:07;-7.80;87.30
8707;DHT22;4390;49.302;9.306;2022-12-18T06:05:37;-7.90;87.50
8707;DHT22;4390;49.302;9.306;2022-12-18T06:08:04;-7.80;87.60
8707;DHT22;4390;49.302;9.306;2022-12-18T06:10:31;-7.70;87.50
8707;DHT22;4390;49.302;9.306;2022-12-18T06:12:58;-7.60;87.70
8707;DHT22;4390;49.302;9.306;2022-12-18T06:15:24;-7.70;87.60
8707;DHT22;4390;49.302;9.306;2022-12-18T06:17:51;-7.60;87.60
8707;DHT22;4390;49.302;9.306;2022-12-18T06:20:18;-7.50;87.10
8707;DHT22;4390;49.302;9.306;2022-12-18T06:22:59;-7.50;86.80
8707;DHT22;4390;49.302;9.306;2022-12-18T06:25:26;-7.60;87.00
8707;DHT22;4390;49.302;9.306;2022-12-18T06:27:52;-7.50;86.90
8707;DHT22;4390;49.302;9.306;2022-12-18T06:30:19;-7.70;86.90
8707;DHT22;4390;49.302;9.306;2022-12-18T06:32:48;-7.70;87.10
8707;DHT22;4390;49.302;9.306;2022-12-18T06:35:22;-7.80;87.10
8707;DHT22;4390;49.302;9.306;2022-12-18T06:37:49;-7.80;87.60
8707;DHT22;4390;49.302;9.306;2022-12-18T06:40:16;-7.60;87.70
8707;DHT22;4390;49.302;9.306;2022-12-18T06:42:43;-7.60;87.20
8707;DHT22;4390;49.302;9.306;2022-12-18T06:45:10;-7.50;87.00
8707;DHT22;4390;49.302;9.306;2022-12-18T06:47:37;-7.40;86.90
8707;DHT22;4390;49.302;9.306;2022-12-18T06:50:04;-7.60;86.90
8707;DHT22;4390;49.302;9.306;2022-12-18T06:52:32;-7.60;87.00
8707;DHT22;4390;49.302;9.306;2022-12-18T06:55:00;-7.60;87.00
8707;DHT22;4390;49.302;9.306;2022-12-18T06:57:26;-7.50;87.00
8707;DHT22;4390;49.302;9.306;2022-12-18T06:59:53;-7.60;86.90
8707;DHT22;4390;49.302;9.306;2022-12-18T07:02:20;-7.70;87.10
8707;DHT22;4390;49.302;9.306;2022-12-18T07:04:46;-7.50;87.40
8707;DHT22;4390;49.302;9.306;2022-12-18T07:07:14;-7.40;87.40
8707;DHT22;4390;49.302;9.306;2022-12-18T07:09:41;-7.30;87.10
8707;DHT22;4390;49.302;9.306;2022-12-18T07:12:09;-7.40;86.90
8707;DHT22;4390;49.302;9.306;2022-12-18T07:14:35;-7.40;87.00
8707;DHT22;4390;49.302;9.306;2022-12-18T07:17:02;-7.40;87.00
8707;DHT22;4390;49.302;9.306;2022-12-18T07:19:29;-7.40;87.30
8707;DHT22;4390;49.302;9.306;2022-12-18T07:21:56;-7.40;87.10
8707;DHT22;4390;49.302;9.306;2022-12-18T07:24:23;-7.40;87.10
8707;DHT22;4390;49.302;9.306;2022-12-18T07:26:49;-7.50;87.40
8707;DHT22;4390;49.302;9.306;2022-12-18T07:29:16;-7.40;87.40
8707;DHT22;4390;49.302;9.306;2022-12-18T07:31:43;-7.40;87.30
8707;DHT22;4390;49.302;9.306;2022-12-18T07:34:11;-7.40;87.30
8707;DHT22;4390;49.302;9.306;2022-12-18T07:36:39;-7.40;87.20
8707;DHT22;4390;49.302;9.306;2022-12-18T07:39:05;-7.40;87.40
8707;DHT22;4390;49.302;9.306;2022-12-18T07:41:32;-7.50;87.50
8707;DHT22;4390;49.302;9.306;2022-12-18T07:44:10;-7.40;87.40
8707;DHT22;4390;49.302;9.306;2022-12-18T07:46:37;-7.10;87.20
8707;DHT22;4390;49.302;9.306;2022-12-18T07:49:04;-7.10;86.60
8707;DHT22;4390;49.302;9.306;2022-12-18T07:51:31;-7.30;86.70
8707;DHT22;4390;49.302;9.306;2022-12-18T07:53:57;-7.30;87.00
8707;DHT22;4390;49.302;9.306;2022-12-18T07:56:24;-7.30;87.00
8707;DHT22;4390;49.302;9.306;2022-12-18T07:58:55;-7.30;87.10
8707;DHT22;4390;49.302;9.306;2022-12-18T08:01:22;-7.20;87.10
8707;DHT22;4390;49.302;9.306;2022-12-18T08:03:49;-7.20;86.90
8707;DHT22;4390;49.302;9.306;2022-12-18T08:06:18;-7.50;86.90
8707;DHT22;4390;49.302;9.306;2022-12-18T08:08:48;-7.50;87.40
8707;DHT22;4390;49.302;9.306;2022-12-18T08:11:15;-7.30;87.50
8707;DHT22;4390;49.302;9.306;2022-12-18T08:13:42;-7.30;87.40
8707;DHT22;4390;49.302;9.306;2022-12-18T08:16:09;-7.10;87.40
8707;DHT22;4390;49.302;9.306;2022-12-18T08:18:37;-7.10;87.10
8707;DHT22;4390;49.302;9.306;2022-12-18T08:21:17;-7.10;87.10
8707;DHT22;4390;49.302;9.306;2022-12-18T08:23:47;-7.00;86.80
8707;DHT22;4390;49.302;9.306;2022-12-18T08:26:15;-7.00;86.90
8707;DHT22;4390;49.302;9.306;2022-12-18T08:28:42;-6.90;86.80
8707;DHT22;4390;49.302;9.306;2022-12-18T08:31:09;-6.90;86.80
8707;DHT22;4390;49.302;9.306;2022-12-18T08:33:37;-6.90;86.80
8707;DHT22;4390;49.302;9.306;2022-12-18T08:36:05;-6.80;86.80
8707;DHT22;4390;49.302;9.306;2022-12-18T08:38:33;-6.70;86.60
8707;DHT22;4390;49.302;9.306;2022-12-18T08:41:02;-6.70;86.60
8707;DHT22;4390;49.302;9.306;2022-12-18T08:43:29;-6.50;86.60
8707;DHT22;4390;49.302;9.306;2022-12-18T08:46:15;-6.60;86.40
8707;DHT22;4390;49.302;9.306;2022-12-18T08:48:42;-6.40;86.30
8707;DHT22;4390;49.302;9.306;2022-12-18T08:51:09;-6.40;86.10
8707;DHT22;4390;49.302;9.306;2022-12-18T08:53:36;-6.50;86.30
8707;DHT22;4390;49.302;9.306;2022-12-18T08:56:04;-6.20;86.20
8707;DHT22;4390;49.302;9.306;2022-12-18T08:58:31;-6.20;86.10
8707;DHT22;4390;49.302;9.306;2022-12-18T09:01:06;-6.10;85.90
8707;DHT22;4390;49.302;9.306;2022-12-18T09:03:33;-6.20;86.20
8707;DHT22;4390;49.302;9.306;2022-12-18T09:06:00;-6.00;86.30
8707;DHT22;4390;49.302;9.306;2022-12-18T09:08:27;-5.90;86.50
8707;DHT22;4390;49.302;9.306;2022-12-18T09:10:54;-5.80;86.70
8707;DHT22;4390;49.302;9.306;2022-12-18T09:13:21;-5.70;86.70
8707;DHT22;4390;49.302;9.306;2022-12-18T09:15:51;-5.50;86.40
8707;DHT22;4390;49.302;9.306;2022-12-18T09:18:20;-5.40;86.40
8707;DHT22;4390;49.302;9.306;2022-12-18T09:20:47;-5.30;86.60
8707;DHT22;4390;49.302;9.306;2022-12-18T09:23:14;-5.30;86.50
8707;DHT22;4390;49.302;9.306;2022-12-18T09:25:41;-5.30;86.50
8707;DHT22;4390;49.302;9.306;2022-12-18T09:28:13;-5.20;86.80
8707;DHT22;4390;49.302;9.306;2022-12-18T09:30:47;-5.20;86.70
8707;DHT22;4390;49.302;9.306;2022-12-18T09:33:14;-5.10;86.80
8707;DHT22;4390;49.302;9.306;2022-12-18T09:35:42;-5.00;86.90
8707;DHT22;4390;49.302;9.306;2022-12-18T09:38:15;-4.80;86.50
8707;DHT22;4390;49.302;9.306;2022-12-18T09:40:51;-4.90;86.60
8707;DHT22;4390;49.302;9.306;2022-12-18T09:43:26;-5.00;86.90
8707;DHT22;4390;49.302;9.306;2022-12-18T09:45:58;-4.90;86.90
8707;DHT22;4390;49.302;9.306;2022-12-18T09:48:32;-4.80;87.10
8707;DHT22;4390;49.302;9.306;2022-12-18T09:51:05;-4.60;86.80
8707;DHT22;4390;49.302;9.306;2022-12-18T09:53:38;-4.50;86.60
8707;DHT22;4390;49.302;9.306;2022-12-18T09:56:18;-4.40;86.50
8707;DHT22;4390;49.302;9.306;2022-12-18T09:59:06;-4.40;86.90
8707;DHT22;4390;49.302;9.306;2022-12-18T10:01:40;-4.30;87.00
8707;DHT22;4390;49.302;9.306;2022-12-18T10:04:11;-4.10;86.80
8707;DHT22;4390;49.302;9.306;2022-12-18T10:07:02;-3.90;86.60
8707;DHT22;4390;49.302;9.306;2022-12-18T10:12:21;-3.50;86.10
8707;DHT22;4390;49.302;9.306;2022-12-18T10:15:17;-1.50;85.40
8707;DHT22;4390;49.302;9.306;2022-12-18T10:17:55;3.40;79.50
8707;DHT22;4390;49.302;9.306;2022-12-18T10:20:32;6.30;72.70
8707;DHT22;4390;49.302;9.306;2022-12-18T10:23:42;8.30;68.90
8707;DHT22;4390;49.302;9.306;2022-12-18T10:26:13;10.00;66.10
8707;DHT22;4390;49.302;9.306;2022-12-18T10:28:41;11.30;63.40
8707;DHT22;4390;49.302;9.306;2022-12-18T10:31:21;12.20;62.20
8707;DHT22;4390;49.302;9.306;2022-12-18T10:33:51;13.40;60.60
8707;DHT22;4390;49.302;9.306;2022-12-18T10:36:22;14.00;59.20
8707;DHT22;4390;49.302;9.306;2022-12-18T10:38:49;13.90;58.50
8707;DHT22;4390;49.302;9.306;2022-12-18T10:43:51;15.00;57.30
8707;DHT22;4390;49.302;9.306;2022-12-18T10:46:35;15.90;56.40
8707;DHT22;4390;49.302;9.306;2022-12-18T10:49:02;16.70;55.50
8707;DHT22;4390;49.302;9.306;2022-12-18T10:54:22;16.80;54.40
8707;DHT22;4390;49.302;9.306;2022-12-18T10:56:49;16.00;54.80
8707;DHT22;4390;49.302;9.306;2022-12-18T10:59:17;16.00;54.90
8707;DHT22;4390;49.302;9.306;2022-12-18T11:01:51;14.90;55.20
8707;DHT22;4390;49.302;9.306;2022-12-18T11:04:22;11.40;57.60
8707;DHT22;4390;49.302;9.306;2022-12-18T11:06:58;8.70;60.60
8707;DHT22;4390;49.302;9.306;2022-12-18T11:09:28;6.40;64.00
8707;DHT22;4390;49.302;9.306;2022-12-18T11:11:57;4.90;66.80
8707;DHT22;4390;49.302;9.306;2022-12-18T11:14:32;3.90;69.30
8707;DHT22;4390;49.302;9.306;2022-12-18T11:17:00;3.20;71.00
8707;DHT22;4390;49.302;9.306;2022-12-18T11:19:56;2.90;71.90
8707;DHT22;4390;49.302;9.306;2022-12-18T11:22:31;2.50;72.70
8707;DHT22;4390;49.302;9.306;2022-12-18T11:36:58;1.10;76.60
8707;DHT22;4390;49.302;9.306;2022-12-18T11:39:36;0.70;77.30
8707;DHT22;4390;49.302;9.306;2022-12-18T11:42:16;0.50;78.10
8707;DHT22;4390;49.302;9.306;2022-12-18T11:44:58;0.30;78.60
8707;DHT22;4390;49.302;9.306;2022-12-18T11:50:21;0.30;79.60
8707;DHT22;4390;49.302;9.306;2022-12-18T11:52:50;0.40;79.80
8707;DHT22;4390;49.302;9.306;2022-12-18T11:55:53;0.50;79.60
8707;DHT22;4390;49.302;9.306;2022-12-18T12:03:56;0.60;79.90
8707;DHT22;4390;49.302;9.306;2022-12-18T12:14:56;0.90;79.60
8707;DHT22;4390;49.302;9.306;2022-12-18T12:17:46;1.10;79.40
8707;DHT22;4390;49.302;9.306;2022-12-18T12:20:59;1.10;79.20
8707;DHT22;4390;49.302;9.306;2022-12-18T12:27:00;1.20;79.30
8707;DHT22;4390;49.302;9.306;2022-12-18T12:31:53;1.60;78.70
8707;DHT22;4390;49.302;9.306;2022-12-18T12:34:50;1.30;79.00
8707;DHT22;4390;49.302;9.306;2022-12-18T12:38:11;1.50;78.80
8707;DHT22;4390;49.302;9.306;2022-12-18T12:43:35;1.40;78.80
8707;DHT22;4390;49.302;9.306;2022-12-18T12:46:16;1.30;79.30
8707;DHT22;4390;49.302;9.306;2022-12-18T12:48:51;1.20;79.30
8707;DHT22;4390;49.302;9.306;2022-12-18T12:53:52;0.90;80.10
8707;DHT22;4390;49.302;9.306;2022-12-18T12:56:21;0.90;80.40
8707;DHT22;4390;49.302;9.306;2022-12-18T13:04:32;0.50;81.30
8707;DHT22;4390;49.302;9.306;2022-12-18T13:07:21;0.60;81.30
8707;DHT22;4390;49.302;9.306;2022-12-18T13:15:32;0.40;81.40
8707;DHT22;4390;49.302;9.306;2022-12-18T13:18:15;0.30;81.90
8707;DHT22;4390;49.302;9.306;2022-12-18T13:23:33;0.40;81.70
8707;DHT22;4390;49.302;9.306;2022-12-18T13:34:23;0.50;81.40
8707;DHT22;4390;49.302;9.306;2022-12-18T13:36:54;0.50;81.60
8707;DHT22;4390;49.302;9.306;2022-12-18T13:39:23;0.40;81.70
8707;DHT22;4390;49.302;9.306;2022-12-18T13:44:40;0.10;82.30
8707;DHT22;4390;49.302;9.306;2022-12-18T13:47:37;0.10;82.70
8707;DHT22;4390;49.302;9.306;2022-12-18T13:50:23;0.30;82.20
8707;DHT22;4390;49.302;9.306;2022-12-18T13:52:58;0.20;82.30
8707;DHT22;4390;49.302;9.306;2022-12-18T13:55:25;-0.10;83.00
8707;DHT22;4390;49.302;9.306;2022-12-18T13:58:03;-0.20;83.50
8707;DHT22;4390;49.302;9.306;2022-12-18T14:00:31;0.00;83.50
8707;DHT22;4390;49.302;9.306;2022-12-18T14:02:59;0.10;83.00
8707;DHT22;4390;49.302;9.306;2022-12-18T14:05:35;0.10;82.70
8707;DHT22;4390;49.302;9.306;2022-12-18T14:08:14;0.00;82.90
8707;DHT22;4390;49.302;9.306;2022-12-18T14:10:43;-0.10;83.10
8707;DHT22;4390;49.302;9.306;2022-12-18T14:13:23;-0.20;83.30
8707;DHT22;4390;49.302;9.306;2022-12-18T14:15:51;-0.30;83.70
8707;DHT22;4390;49.302;9.306;2022-12-18T14:18:46;-0.50;84.00
8707;DHT22;4390;49.302;9.306;2022-12-18T14:21:21;-0.50;84.40
8707;DHT22;4390;49.302;9.306;2022-12-18T14:23:48;-0.30;83.90
8707;DHT22;4390;49.302;9.306;2022-12-18T14:26:28;-0.50;83.80
8707;DHT22;4390;49.302;9.306;2022-12-18T14:28:59;-0.60;84.20
8707;DHT22;4390;49.302;9.306;2022-12-18T14:31:29;-0.70;84.40
8707;DHT22;4390;49.302;9.306;2022-12-18T14:33:56;-0.90;84.80
8707;DHT22;4390;49.302;9.306;2022-12-18T14:36:25;-0.70;84.70
8707;DHT22;4390;49.302;9.306;2022-12-18T14:38:57;-0.70;84.60
8707;DHT22;4390;49.302;9.306;2022-12-18T14:41:24;-0.80;84.50
8707;DHT22;4390;49.302;9.306;2022-12-18T14:43:53;-0.70;84.60
8707;DHT22;4390;49.302;9.306;2022-12-18T14:46:35;-0.70;84.60
8707;DHT22;4390;49.302;9.306;2022-12-18T14:49:23;-0.90;84.50
8707;DHT22;4390;49.302;9.306;2022-12-18T14:51:55;-0.80;84.80
8707;DHT22;4390;49.302;9.306;2022-12-18T14:54:27;-0.90;84.60
8707;DHT22;4390;49.302;9.306;2022-12-18T14:57:04;-1.20;84.90
8707;DHT22;4390;49.302;9.306;2022-12-18T14:59:31;-1.20;85.50
8707;DHT22;4390;49.302;9.306;2022-12-18T15:04:42;-1.20;85.40
8707;DHT22;4390;49.302;9.306;2022-12-18T15:09:39;-1.40;85.80
8707;DHT22;4390;49.302;9.306;2022-12-18T15:12:23;-1.50;85.90
8707;DHT22;4390;49.302;9.306;2022-12-18T15:14:51;-1.60;86.10
8707;DHT22;4390;49.302;9.306;2022-12-18T15:17:21;-1.40;86.30
8707;DHT22;4390;49.302;9.306;2022-12-18T15:20:03;-1.70;86.10
8707;DHT22;4390;49.302;9.306;2022-12-18T15:22:37;-1.60;86.50
8707;DHT22;4390;49.302;9.306;2022-12-18T15:27:55;-1.50;86.00
8707;DHT22;4390;49.302;9.306;2022-12-18T15:30:24;-1.60;86.10
8707;DHT22;4390;49.302;9.306;2022-12-18T15:32:52;-1.60;86.20
8707;DHT22;4390;49.302;9.306;2022-12-18T15:35:39;-1.80;86.20
8707;DHT22;4390;49.302;9.306;2022-12-18T15:38:12;-1.80;86.70
8707;DHT22;4390;49.302;9.306;2022-12-18T15:40:39;-1.90;86.60
8707;DHT22;4390;49.302;9.306;2022-12-18T15:43:08;-2.00;87.00
8707;DHT22;4390;49.302;9.306;2022-12-18T15:45:54;-2.00;87.10
8707;DHT22;4390;49.302;9.306;2022-12-18T15:48:22;-2.10;87.20
8707;DHT22;4390;49.302;9.306;2022-12-18T15:50:50;-2.10;87.30
8707;DHT22;4390;49.302;9.306;2022-12-18T15:53:19;-2.10;87.20
8707;DHT22;4390;49.302;9.306;2022-12-18T15:55:45;-2.00;87.40
8707;DHT22;4390;49.302;9.306;2022-12-18T15:58:32;-2.10;87.00
8707;DHT22;4390;49.302;9.306;2022-12-18T16:01:00;-2.20;87.50
8707;DHT22;4390;49.302;9.306;2022-12-18T16:03:28;-2.10;87.10
8707;DHT22;4390;49.302;9.306;2022-12-18T16:05:54;-2.20;87.30
8707;DHT22;4390;49.302;9.306;2022-12-18T16:08:22;-2.10;87.60
8707;DHT22;4390;49.302;9.306;2022-12-18T16:10:49;-2.00;87.00
8707;DHT22;4390;49.302;9.306;2022-12-18T16:13:19;-2.30;87.20
8707;DHT22;4390;49.302;9.306;2022-12-18T16:15:46;-2.30;87.50
8707;DHT22;4390;49.302;9.306;2022-12-18T16:18:13;-2.50;87.60
8707;DHT22;4390;49.302;9.306;2022-12-18T16:20:40;-2.60;88.00
8707;DHT22;4390;49.302;9.306;2022-12-18T16:23:07;-2.40;87.70
8707;DHT22;4390;49.302;9.306;2022-12-18T16:25:34;-2.20;87.50
8707;DHT22;4390;49.302;9.306;2022-12-18T16:28:00;-2.20;87.40
8707;DHT22;4390;49.302;9.306;2022-12-18T16:30:29;-2.50;87.40
8707;DHT22;4390;49.302;9.306;2022-12-18T16:33:04;-2.60;88.00
8707;DHT22;4390;49.302;9.306;2022-12-18T16:35:33;-2.40;87.80
8707;DHT22;4390;49.302;9.306;2022-12-18T16:38:00;-2.40;87.90
8707;DHT22;4390;49.302;9.306;2022-12-18T16:40:26;-2.30;87.50
8707;DHT22;4390;49.302;9.306;2022-12-18T16:42:53;-2.30;87.70
8707;DHT22;4390;49.302;9.306;2022-12-18T16:45:20;-2.20;87.40
8707;DHT22;4390;49.302;9.306;2022-12-18T16:47:47;-2.20;87.30
8707;DHT22;4390;49.302;9.306;2022-12-18T16:50:13;-2.50;87.70
8707;DHT22;4390;49.302;9.306;2022-12-18T16:52:40;-2.50;87.70
8707;DHT22;4390;49.302;9.306;2022-12-18T16:55:07;-2.60;88.00
8707;DHT22;4390;49.302;9.306;2022-12-18T16:57:34;-2.50;88.20
8707;DHT22;4390;49.302;9.306;2022-12-18T17:00:02;-2.60;88.60
8707;DHT22;4390;49.302;9.306;2022-12-18T17:02:32;-2.50;88.50
8707;DHT22;4390;49.302;9.306;2022-12-18T17:04:59;-2.50;88.40
8707;DHT22;4390;49.302;9.306;2022-12-18T17:07:26;-2.40;88.10
8707;DHT22;4390;49.302;9.306;2022-12-18T17:09:54;-2.50;88.20
8707;DHT22;4390;49.302;9.306;2022-12-18T17:12:21;-2.70;88.40
8707;DHT22;4390;49.302;9.306;2022-12-18T17:14:48;-2.50;88.60
8707;DHT22;4390;49.302;9.306;2022-12-18T17:17:16;-2.40;88.30
8707;DHT22;4390;49.302;9.306;2022-12-18T17:19:49;-2.40;88.30
8707;DHT22;4390;49.302;9.306;2022-12-18T17:22:15;-2.30;88.00
8707;DHT22;4390;49.302;9.306;2022-12-18T17:24:42;-2.50;88.10
8707;DHT22;4390;49.302;9.306;2022-12-18T17:27:09;-2.50;88.60
8707;DHT22;4390;49.302;9.306;2022-12-18T17:29:36;-2.50;88.30
8707;DHT22;4390;49.302;9.306;2022-12-18T17:32:10;-2.50;88.20
8707;DHT22;4390;49.302;9.306;2022-12-18T17:34:39;-2.60;88.30
8707;DHT22;4390;49.302;9.306;2022-12-18T17:37:06;-2.60;88.50
8707;DHT22;4390;49.302;9.306;2022-12-18T17:39:33;-2.60;88.50
8707;DHT22;4390;49.302;9.306;2022-12-18T17:42:00;-2.50;88.40
8707;DHT22;4390;49.302;9.306;2022-12-18T17:44:27;-2.70;88.30
8707;DHT22;4390;49.302;9.306;2022-12-18T17:46:53;-2.70;88.70
8707;DHT22;4390;49.302;9.306;2022-12-18T17:49:20;-2.60;88.80
8707;DHT22;4390;49.302;9.306;2022-12-18T17:51:47;-2.40;88.30
8707;DHT22;4390;49.302;9.306;2022-12-18T17:54:14;-2.60;88.30
8707;DHT22;4390;49.302;9.306;2022-12-18T17:56:41;-2.60;88.40
8707;DHT22;4390;49.302;9.306;2022-12-18T17:59:08;-2.80;88.50
8707;DHT22;4390;49.302;9.306;2022-12-18T18:01:35;-2.70;88.50
8707;DHT22;4390;49.302;9.306;2022-12-18T18:04:09;-2.60;88.20
8707;DHT22;4390;49.302;9.306;2022-12-18T18:06:37;-2.70;88.30
8707;DHT22;4390;49.302;9.306;2022-12-18T18:09:08;-2.70;88.40
8707;DHT22;4390;49.302;9.306;2022-12-18T18:11:43;-2.80;88.50
8707;DHT22;4390;49.302;9.306;2022-12-18T18:14:28;-2.80;88.30
8707;DHT22;4390;49.302;9.306;2022-12-18T18:16:55;-2.70;88.30